TimeEST,TemperatureF,Dew PointF,Humidity,Sea Level PressureIn,VisibilityMPH,Wind Direction,Wind SpeedMPH,Gust SpeedMPH,PrecipitationIn,Events,Conditions,WindDirDegrees,DateUTC
12:53 AM,30.9,30.0,96,30.15,10.0,Calm,Calm,-,N/A,,Overcast,0,2012-12-28 05:53:00
1:44 AM,30.2,30.2,100,30.12,10.0,Calm,Calm,-,N/A,,Overcast,0,2012-12-28 06:44:00
1:53 AM,30.9,30.0,96,30.14,10.0,Calm,Calm,-,N/A,,Overcast,0,2012-12-28 06:53:00
2:53 AM,30.9,30.0,96,30.14,10.0,Calm,Calm,-,N/A,,Overcast,0,2012-12-28 07:53:00
3:53 AM,28.0,28.0,100,30.14,9.0,ESE,3.5,-,N/A,,Overcast,120,2012-12-28 08:53:00
4:53 AM,28.9,28.9,100,30.13,9.0,SE,3.5,-,N/A,,Overcast,130,2012-12-28 09:53:00
5:53 AM,28.9,28.9,100,30.11,8.0,ESE,4.6,-,N/A,,Overcast,110,2012-12-28 10:53:00
6:53 AM,28.9,28.9,100,30.12,8.0,Calm,Calm,-,N/A,,Overcast,0,2012-12-28 11:53:00
7:53 AM,28.9,28.9,100,30.12,8.0,ESE,4.6,-,N/A,,Overcast,110,2012-12-28 12:53:00
8:39 AM,28.4,28.4,100,30.10,7.0,ESE,5.8,-,N/A,,Overcast,120,2012-12-28 13:39:00
8:53 AM,28.9,28.9,100,30.14,5.0,SE,4.6,-,N/A,,Overcast,130,2012-12-28 13:53:00
9:14 AM,28.4,28.4,100,30.12,2.0,ESE,5.8,-,0.00,Snow,Light Snow,120,2012-12-28 14:14:00
9:20 AM,28.4,28.4,100,30.11,1.2,ESE,5.8,-,0.00,Snow,Light Snow,120,2012-12-28 14:20:00
9:46 AM,28.4,28.4,100,30.12,0.8,ESE,6.9,-,0.00,Snow,Light Snow,120,2012-12-28 14:46:00
9:53 AM,28.9,28.9,100,30.15,0.5,SE,6.9,-,0.00,Fog-Snow,Snow,130,2012-12-28 14:53:00
10:53 AM,28.9,-9999,N/A,30.15,0.5,SE,8.1,-,0.03,Snow,Snow,130,2012-12-28 15:53:00
11:00 AM,30.2,-9999,N/A,30.13,0.8,SE,6.9,-,0.00,Snow,Light Snow,130,2012-12-28 16:00:00
11:16 AM,30.2,-9999,N/A,30.11,0.5,ESE,5.8,-,0.00,Snow,Snow,120,2012-12-28 16:16:00
11:29 AM,30.2,30.2,100,30.10,0.8,ESE,4.6,-,0.00,Snow,Light Snow,120,2012-12-28 16:29:00
11:36 AM,30.2,30.2,100,30.10,0.5,ESE,4.6,-,0.01,Fog-Snow,Snow,120,2012-12-28 16:36:00
11:42 AM,30.2,30.2,100,30.10,0.8,ESE,5.8,-,0.01,Snow,Light Snow,120,2012-12-28 16:42:00
11:51 AM,30.2,30.2,100,30.09,1.0,SE,6.9,-,0.01,Snow,Light Snow,130,2012-12-28 16:51:00
11:53 AM,30.0,-9999,N/A,30.11,1.0,ESE,8.1,-,0.01,Snow,Light Snow,120,2012-12-28 16:53:00
12:09 PM,30.2,30.2,100,30.07,1.5,East,8.1,-,0.00,Snow,Light Snow,100,2012-12-28 17:09:00
12:18 PM,30.2,30.2,100,30.07,1.2,ESE,4.6,-,0.00,Snow,Light Snow,120,2012-12-28 17:18:00
12:53 PM,30.9,30.9,100,30.07,1.0,SE,8.1,-,0.00,Snow,Light Snow,140,2012-12-28 17:53:00
1:25 PM,30.2,30.2,100,30.02,1.5,SE,9.2,-,0.00,Snow,Light Snow,140,2012-12-28 18:25:00
1:38 PM,30.2,30.2,100,30.02,1.8,SE,5.8,-,0.00,Snow,Light Snow,130,2012-12-28 18:38:00
1:51 PM,30.2,30.2,100,30.01,2.0,SSE,6.9,-,0.00,Snow,Light Snow,150,2012-12-28 18:51:00
1:53 PM,30.9,30.9,100,30.03,2.0,SSE,8.1,-,0.00,Snow,Light Snow,150,2012-12-28 18:53:00
2:19 PM,32.0,32.0,100,30.00,3.0,ESE,6.9,-,0.00,Snow,Light Snow,120,2012-12-28 19:19:00
2:41 PM,32.0,32.0,100,29.98,8.0,SE,6.9,-,0.00,,Overcast,130,2012-12-28 19:41:00
2:53 PM,32.0,32.0,100,30.00,10.0,ESE,6.9,-,0.00,,Overcast,120,2012-12-28 19:53:00
3:53 PM,32.0,27.0,82,30.00,10.0,SE,8.1,-,N/A,,Overcast,140,2012-12-28 20:53:00
4:53 PM,30.9,27.0,85,30.00,10.0,ESE,6.9,-,N/A,,Overcast,120,2012-12-28 21:53:00
5:53 PM,30.9,27.0,85,30.00,9.0,ESE,5.8,-,N/A,,Overcast,110,2012-12-28 22:53:00
6:53 PM,30.9,27.0,85,29.99,8.0,ESE,4.6,-,N/A,,Overcast,120,2012-12-28 23:53:00
7:33 PM,30.2,26.6,86,29.98,8.0,ESE,5.8,-,N/A,,Overcast,120,2012-12-29 00:33:00
7:53 PM,30.0,27.0,88,30.00,8.0,ESE,4.6,-,N/A,,Overcast,120,2012-12-29 00:53:00
8:53 PM,30.0,27.0,88,29.98,6.0,East,3.5,-,N/A,,Overcast,90,2012-12-29 01:53:00
9:53 PM,30.0,27.0,88,29.95,5.0,East,3.5,-,N/A,,Overcast,80,2012-12-29 02:53:00
10:53 PM,30.0,28.0,92,29.93,5.0,East,3.5,-,N/A,,Overcast,90,2012-12-29 03:53:00
11:53 PM,30.0,26.1,85,29.93,4.0,East,3.5,-,N/A,,Overcast,90,2012-12-29 04:53:00